sensor_id;sensor_type;location;lat;lon;timestamp;temperature;humidity
14798;DHT22;7490;63.708;20.368;2024-01-06T00:01:49;-20.70;99.90
14798;DHT22;7490;63.708;20.368;2024-01-06T00:04:15;-20.80;99.90
14798;DHT22;7490;63.708;20.368;2024-01-06T00:06:40;-20.80;99.90
14798;DHT22;7490;63.708;20.368;2024-01-06T00:09:06;-20.80;99.90
14798;DHT22;7490;63.708;20.368;2024-01-06T00:11:32;-20.80;99.90
14798;DHT22;7490;63.708;20.368;2024-01-06T00:13:58;-20.80;99.90
14798;DHT22;7490;63.708;20.368;2024-01-06T00:16:23;-20.90;99.90
14798;DHT22;7490;63.708;20.368;2024-01-06T00:18:49;-20.90;99.90
14798;DHT22;7490;63.708;20.368;2024-01-06T00:21:15;-20.90;99.90
14798;DHT22;7490;63.708;20.368;2024-01-06T00:23:41;-20.90;99.90
14798;DHT22;7490;63.708;20.368;2024-01-06T00:26:07;-20.90;99.90
14798;DHT22;7490;63.708;20.368;2024-01-06T00:28:33;-20.90;99.90
14798;DHT22;7490;63.708;20.368;2024-01-06T00:30:59;-20.90;99.90
14798;DHT22;7490;63.708;20.368;2024-01-06T00:33:24;-20.90;99.90
14798;DHT22;7490;63.708;20.368;2024-01-06T00:35:50;-20.90;99.90
14798;DHT22;7490;63.708;20.368;2024-01-06T00:38:16;-20.90;99.90
14798;DHT22;7490;63.708;20.368;2024-01-06T00:40:41;-20.90;99.90
14798;DHT22;7490;63.708;20.368;2024-01-06T00:43:07;-20.90;99.90
14798;DHT22;7490;63.708;20.368;2024-01-06T00:45:33;-20.90;99.90
14798;DHT22;7490;63.708;20.368;2024-01-06T00:47:58;-20.80;99.90
14798;DHT22;7490;63.708;20.368;2024-01-06T00:50:24;-20.90;99.90
14798;DHT22;7490;63.708;20.368;2024-01-06T00:52:50;-20.80;99.90
14798;DHT22;7490;63.708;20.368;2024-01-06T00:55:18;-20.90;99.90
14798;DHT22;7490;63.708;20.368;2024-01-06T00:57:44;-20.90;99.90
14798;DHT22;7490;63.708;20.368;2024-01-06T01:00:10;-20.90;99.90
14798;DHT22;7490;63.708;20.368;2024-01-06T01:02:36;-20.90;99.90
14798;DHT22;7490;63.708;20.368;2024-01-06T01:05:01;-20.90;99.90
14798;DHT22;7490;63.708;20.368;2024-01-06T01:07:27;-20.90;99.90
14798;DHT22;7490;63.708;20.368;2024-01-06T01:09:53;-20.90;99.90
14798;DHT22;7490;63.708;20.368;2024-01-06T01:12:19;-20.90;99.90
14798;DHT22;7490;63.708;20.368;2024-01-06T01:14:44;-20.90;99.90
14798;DHT22;7490;63.708;20.368;2024-01-06T01:17:10;-20.90;99.90
14798;DHT22;7490;63.708;20.368;2024-01-06T01:19:35;-20.90;99.90
14798;DHT22;7490;63.708;20.368;2024-01-06T01:22:01;-20.90;99.90
14798;DHT22;7490;63.708;20.368;2024-01-06T01:24:27;-21.00;99.90
14798;DHT22;7490;63.708;20.368;2024-01-06T01:26:52;-21.00;99.90
14798;DHT22;7490;63.708;20.368;2024-01-06T01:29:18;-21.00;99.90
14798;DHT22;7490;63.708;20.368;2024-01-06T01:31:46;-21.00;99.90
14798;DHT22;7490;63.708;20.368;2024-01-06T01:34:12;-21.10;99.90
14798;DHT22;7490;63.708;20.368;2024-01-06T01:36:37;-21.10;99.90
14798;DHT22;7490;63.708;20.368;2024-01-06T01:39:03;-21.10;99.90
14798;DHT22;7490;63.708;20.368;2024-01-06T01:41:29;-21.10;99.90
14798;DHT22;7490;63.708;20.368;2024-01-06T01:43:54;-21.10;99.90
14798;DHT22;7490;63.708;20.368;2024-01-06T01:46:30;-21.10;99.90
14798;DHT22;7490;63.708;20.368;2024-01-06T01:48:57;-21.00;99.90
14798;DHT22;7490;63.708;20.368;2024-01-06T01:51:24;-20.90;99.90
14798;DHT22;7490;63.708;20.368;2024-01-06T01:53:51;-20.80;99.90
14798;DHT22;7490;63.708;20.368;2024-01-06T01:56:17;-20.70;99.90
14798;DHT22;7490;63.708;20.368;2024-01-06T01:58:44;-20.50;99.90
14798;DHT22;7490;63.708;20.368;2024-01-06T02:01:10;-20.30;99.90
14798;DHT22;7490;63.708;20.368;2024-01-06T02:03:36;-20.20;99.90
14798;DHT22;7490;63.708;20.368;2024-01-06T02:06:02;-20.10;99.90
14798;DHT22;7490;63.708;20.368;2024-01-06T02:08:29;-20.00;99.90
14798;DHT22;7490;63.708;20.368;2024-01-06T02:10:55;-19.90;99.90
14798;DHT22;7490;63.708;20.368;2024-01-06T02:13:22;-19.80;99.90
14798;DHT22;7490;63.708;20.368;2024-01-06T02:15:48;-19.70;99.90
14798;DHT22;7490;63.708;20.368;2024-01-06T02:18:13;-19.60;99.90
14798;DHT22;7490;63.708;20.368;2024-01-06T02:20:44;-19.40;99.90
14798;DHT22;7490;63.708;20.368;2024-01-06T02:23:12;-19.30;99.90
14798;DHT22;7490;63.708;20.368;2024-01-06T02:25:37;-19.30;99.90
14798;DHT22;7490;63.708;20.368;2024-01-06T02:28:03;-19.20;99.90
14798;DHT22;7490;63.708;20.368;2024-01-06T02:30:29;-19.20;99.90
14798;DHT22;7490;63.708;20.368;2024-01-06T02:32:54;-19.10;99.90
14798;DHT22;7490;63.708;20.368;2024-01-06T02:35:20;-18.90;99.90
14798;DHT22;7490;63.708;20.368;2024-01-06T02:37:46;-18.80;99.90
14798;DHT22;7490;63.708;20.368;2024-01-06T02:40:13;-18.70;99.90
14798;DHT22;7490;63.708;20.368;2024-01-06T02:42:38;-18.70;99.90
14798;DHT22;7490;63.708;20.368;2024-01-06T02:45:04;-18.60;99.90
14798;DHT22;7490;63.708;20.368;2024-01-06T02:47:30;-18.50;99.90
14798;DHT22;7490;63.708;20.368;2024-01-06T02:49:56;-18.50;99.90
14798;DHT22;7490;63.708;20.368;2024-01-06T02:52:21;-18.40;99.90
14798;DHT22;7490;63.708;20.368;2024-01-06T02:54:48;-18.40;99.90
14798;DHT22;7490;63.708;20.368;2024-01-06T02:57:13;-18.30;99.90
14798;DHT22;7490;63.708;20.368;2024-01-06T02:59:39;-18.30;99.90
14798;DHT22;7490;63.708;20.368;2024-01-06T03:02:05;-18.20;99.90
14798;DHT22;7490;63.708;20.368;2024-01-06T03:04:31;-18.20;99.90
14798;DHT22;7490;63.708;20.368;2024-01-06T03:06:56;-18.10;99.90
14798;DHT22;7490;63.708;20.368;2024-01-06T03:09:22;-17.90;99.90
14798;DHT22;7490;63.708;20.368;2024-01-06T03:11:47;-17.90;99.90
14798;DHT22;7490;63.708;20.368;2024-01-06T03:14:13;-17.80;99.90
14798;DHT22;7490;63.708;20.368;2024-01-06T03:16:39;-17.70;99.90
14798;DHT22;7490;63.708;20.368;2024-01-06T03:19:05;-17.70;99.90
14798;DHT22;7490;63.708;20.368;2024-01-06T03:21:30;-17.60;99.90
14798;DHT22;7490;63.708;20.368;2024-01-06T03:23:56;-17.50;99.90
14798;DHT22;7490;63.708;20.368;2024-01-06T03:26:21;-17.40;99.90
14798;DHT22;7490;63.708;20.368;2024-01-06T03:28:50;-17.40;99.90
14798;DHT22;7490;63.708;20.368;2024-01-06T03:31:16;-17.30;99.90
14798;DHT22;7490;63.708;20.368;2024-01-06T03:33:43;-17.30;99.90
14798;DHT22;7490;63.708;20.368;2024-01-06T03:36:09;-17.30;99.90
14798;DHT22;7490;63.708;20.368;2024-01-06T03:38:37;-17.30;99.90
14798;DHT22;7490;63.708;20.368;2024-01-06T03:41:03;-17.30;99.90
14798;DHT22;7490;63.708;20.368;2024-01-06T03:43:28;-17.20;99.90
14798;DHT22;7490;63.708;20.368;2024-01-06T03:45:54;-17.10;99.90
14798;DHT22;7490;63.708;20.368;2024-01-06T03:48:22;-17.10;99.90
14798;DHT22;7490;63.708;20.368;2024-01-06T03:50:47;-17.10;99.90
14798;DHT22;7490;63.708;20.368;2024-01-06T03:53:13;-17.00;99.90
14798;DHT22;7490;63.708;20.368;2024-01-06T03:55:39;-16.90;99.90
14798;DHT22;7490;63.708;20.368;2024-01-06T03:58:04;-16.80;99.90
14798;DHT22;7490;63.708;20.368;2024-01-06T04:00:30;-16.80;99.90
14798;DHT22;7490;63.708;20.368;2024-01-06T04:02:55;-16.70;99.90
14798;DHT22;7490;63.708;20.368;2024-01-06T04:05:21;-16.60;99.90
14798;DHT22;7490;63.708;20.368;2024-01-06T04:07:47;-16.50;99.90
14798;DHT22;7490;63.708;20.368;2024-01-06T04:10:12;-16.40;99.90
14798;DHT22;7490;63.708;20.368;2024-01-06T04:12:38;-16.40;99.90
14798;DHT22;7490;63.708;20.368;2024-01-06T04:15:04;-16.30;99.90
14798;DHT22;7490;63.708;20.368;2024-01-06T04:17:30;-16.30;99.90
14798;DHT22;7490;63.708;20.368;2024-01-06T04:19:55;-16.20;99.90
14798;DHT22;7490;63.708;20.368;2024-01-06T04:22:21;-16.20;99.90
14798;DHT22;7490;63.708;20.368;2024-01-06T04:24:47;-16.10;99.90
14798;DHT22;7490;63.708;20.368;2024-01-06T04:27:13;-16.00;99.90
14798;DHT22;7490;63.708;20.368;2024-01-06T04:29:38;-15.90;99.90
14798;DHT22;7490;63.708;20.368;2024-01-06T04:32:05;-15.80;99.90
14798;DHT22;7490;63.708;20.368;2024-01-06T04:34:31;-15.80;99.90
14798;DHT22;7490;63.708;20.368;2024-01-06T04:36:57;-15.70;99.90
14798;DHT22;7490;63.708;20.368;2024-01-06T04:39:22;-15.70;99.90
14798;DHT22;7490;63.708;20.368;2024-01-06T04:41:49;-15.60;99.90
14798;DHT22;7490;63.708;20.368;2024-01-06T04:44:15;-15.60;99.90
14798;DHT22;7490;63.708;20.368;2024-01-06T04:46:40;-15.60;99.90
14798;DHT22;7490;63.708;20.368;2024-01-06T04:49:06;-15.60;99.90
14798;DHT22;7490;63.708;20.368;2024-01-06T04:51:32;-15.50;99.90
14798;DHT22;7490;63.708;20.368;2024-01-06T04:53:57;-15.50;99.90
14798;DHT22;7490;63.708;20.368;2024-01-06T04:56:23;-15.40;99.90
14798;DHT22;7490;63.708;20.368;2024-01-06T04:58:49;-15.40;99.90
14798;DHT22;7490;63.708;20.368;2024-01-06T05:01:14;-15.40;99.90
14798;DHT22;7490;63.708;20.368;2024-01-06T05:03:40;-15.40;99.90
14798;DHT22;7490;63.708;20.368;2024-01-06T05:06:06;-15.50;99.90
14798;DHT22;7490;63.708;20.368;2024-01-06T05:08:31;-15.50;99.90
14798;DHT22;7490;63.708;20.368;2024-01-06T05:10:57;-15.40;99.90
14798;DHT22;7490;63.708;20.368;2024-01-06T05:13:23;-15.40;99.90
14798;DHT22;7490;63.708;20.368;2024-01-06T05:15:48;-15.30;99.90
14798;DHT22;7490;63.708;20.368;2024-01-06T05:18:14;-15.30;99.90
14798;DHT22;7490;63.708;20.368;2024-01-06T05:20:39;-15.30;99.90
14798;DHT22;7490;63.708;20.368;2024-01-06T05:23:07;-15.30;99.90
14798;DHT22;7490;63.708;20.368;2024-01-06T05:25:32;-15.40;99.90
14798;DHT22;7490;63.708;20.368;2024-01-06T05:27:58;-15.30;99.90
14798;DHT22;7490;63.708;20.368;2024-01-06T05:30:24;-15.30;99.90
14798;DHT22;7490;63.708;20.368;2024-01-06T05:32:49;-15.30;99.90
14798;DHT22;7490;63.708;20.368;2024-01-06T05:35:18;-15.20;99.90
14798;DHT22;7490;63.708;20.368;2024-01-06T05:37:44;-15.20;99.90
14798;DHT22;7490;63.708;20.368;2024-01-06T05:40:09;-15.20;99.90
14798;DHT22;7490;63.708;20.368;2024-01-06T05:42:36;-15.00;99.90
14798;DHT22;7490;63.708;20.368;2024-01-06T05:45:02;-15.10;99.90
14798;DHT22;7490;63.708;20.368;2024-01-06T05:47:28;-15.00;99.90
14798;DHT22;7490;63.708;20.368;2024-01-06T05:49:53;-15.00;99.90
14798;DHT22;7490;63.708;20.368;2024-01-06T05:52:19;-15.00;99.90
14798;DHT22;7490;63.708;20.368;2024-01-06T05:54:45;-14.90;99.90
14798;DHT22;7490;63.708;20.368;2024-01-06T05:57:10;-14.90;99.90
14798;DHT22;7490;63.708;20.368;2024-01-06T05:59:37;-14.90;99.90
14798;DHT22;7490;63.708;20.368;2024-01-06T06:02:02;-14.90;99.90
14798;DHT22;7490;63.708;20.368;2024-01-06T06:04:29;-14.90;99.90
14798;DHT22;7490;63.708;20.368;2024-01-06T06:06:54;-14.90;99.90
14798;DHT22;7490;63.708;20.368;2024-01-06T06:09:20;-14.90;99.90
14798;DHT22;7490;63.708;20.368;2024-01-06T06:11:47;-14.80;99.90
14798;DHT22;7490;63.708;20.368;2024-01-06T06:14:13;-14.80;99.90
14798;DHT22;7490;63.708;20.368;2024-01-06T06:16:38;-14.80;99.90
14798;DHT22;7490;63.708;20.368;2024-01-06T06:19:04;-14.80;99.90
14798;DHT22;7490;63.708;20.368;2024-01-06T06:21:30;-14.70;99.90
14798;DHT22;7490;63.708;20.368;2024-01-06T06:23:55;-14.70;99.90
14798;DHT22;7490;63.708;20.368;2024-01-06T06:26:21;-14.60;99.90
14798;DHT22;7490;63.708;20.368;2024-01-06T06:28:47;-14.60;99.90
14798;DHT22;7490;63.708;20.368;2024-01-06T06:31:13;-14.50;99.90
14798;DHT22;7490;63.708;20.368;2024-01-06T06:33:38;-14.50;99.90
14798;DHT22;7490;63.708;20.368;2024-01-06T06:36:05;-14.40;99.90
14798;DHT22;7490;63.708;20.368;2024-01-06T06:38:30;-14.40;99.90
14798;DHT22;7490;63.708;20.368;2024-01-06T06:40:56;-14.30;99.90
14798;DHT22;7490;63.708;20.368;2024-01-06T06:43:22;-14.30;99.90
14798;DHT22;7490;63.708;20.368;2024-01-06T06:45:48;-14.30;99.90
14798;DHT22;7490;63.708;20.368;2024-01-06T06:48:13;-14.20;99.90
14798;DHT22;7490;63.708;20.368;2024-01-06T06:50:39;-14.20;99.90
14798;DHT22;7490;63.708;20.368;2024-01-06T06:53:06;-14.10;99.90
14798;DHT22;7490;63.708;20.368;2024-01-06T06:55:32;-14.10;99.90
14798;DHT22;7490;63.708;20.368;2024-01-06T06:57:58;-14.00;99.90
14798;DHT22;7490;63.708;20.368;2024-01-06T07:00:24;-14.00;99.90
14798;DHT22;7490;63.708;20.368;2024-01-06T07:02:49;-14.00;99.90
14798;DHT22;7490;63.708;20.368;2024-01-06T07:05:15;-14.00;99.90
14798;DHT22;7490;63.708;20.368;2024-01-06T07:07:41;-14.00;99.90
14798;DHT22;7490;63.708;20.368;2024-01-06T07:10:10;-14.00;99.90
14798;DHT22;7490;63.708;20.368;2024-01-06T07:12:35;-13.90;99.90
14798;DHT22;7490;63.708;20.368;2024-01-06T07:15:02;-13.90;99.90
14798;DHT22;7490;63.708;20.368;2024-01-06T07:17:27;-13.90;99.90
14798;DHT22;7490;63.708;20.368;2024-01-06T07:19:53;-13.80;99.90
14798;DHT22;7490;63.708;20.368;2024-01-06T07:22:19;-13.80;99.90
14798;DHT22;7490;63.708;20.368;2024-01-06T07:24:45;-13.80;99.90
14798;DHT22;7490;63.708;20.368;2024-01-06T07:27:11;-13.70;99.90
14798;DHT22;7490;63.708;20.368;2024-01-06T07:29:37;-13.70;99.90
14798;DHT22;7490;63.708;20.368;2024-01-06T07:32:04;-13.70;99.90
14798;DHT22;7490;63.708;20.368;2024-01-06T07:34:32;-13.70;99.90
14798;DHT22;7490;63.708;20.368;2024-01-06T07:37:00;-13.70;99.90
14798;DHT22;7490;63.708;20.368;2024-01-06T07:39:25;-13.60;99.90
14798;DHT22;7490;63.708;20.368;2024-01-06T07:41:51;-13.60;99.90
14798;DHT22;7490;63.708;20.368;2024-01-06T07:44:17;-13.60;99.90
14798;DHT22;7490;63.708;20.368;2024-01-06T07:46:48;-13.70;99.90
14798;DHT22;7490;63.708;20.368;2024-01-06T07:49:13;-13.70;99.90
14798;DHT22;7490;63.708;20.368;2024-01-06T07:51:39;-13.70;99.90
14798;DHT22;7490;63.708;20.368;2024-01-06T07:54:05;-13.70;99.90
14798;DHT22;7490;63.708;20.368;2024-01-06T07:56:31;-13.70;99.90
14798;DHT22;7490;63.708;20.368;2024-01-06T07:58:57;-13.60;99.90
14798;DHT22;7490;63.708;20.368;2024-01-06T08:01:23;-13.60;99.90
14798;DHT22;7490;63.708;20.368;2024-01-06T08:03:48;-13.50;99.90
14798;DHT22;7490;63.708;20.368;2024-01-06T08:06:14;-13.50;99.90
14798;DHT22;7490;63.708;20.368;2024-01-06T08:08:40;-13.50;99.90
14798;DHT22;7490;63.708;20.368;2024-01-06T08:11:05;-13.50;99.90
14798;DHT22;7490;63.708;20.368;2024-01-06T08:13:31;-13.50;99.90
14798;DHT22;7490;63.708;20.368;2024-01-06T08:15:57;-13.60;99.90
14798;DHT22;7490;63.708;20.368;2024-01-06T08:18:23;-13.60;99.90
14798;DHT22;7490;63.708;20.368;2024-01-06T08:20:49;-13.70;99.90
14798;DHT22;7490;63.708;20.368;2024-01-06T08:23:14;-13.70;99.90
14798;DHT22;7490;63.708;20.368;2024-01-06T08:25:41;-13.60;99.90
14798;DHT22;7490;63.708;20.368;2024-01-06T08:28:07;-13.60;99.90
14798;DHT22;7490;63.708;20.368;2024-01-06T08:30:32;-13.60;99.90
14798;DHT22;7490;63.708;20.368;2024-01-06T08:32:58;-13.50;99.90
14798;DHT22;7490;63.708;20.368;2024-01-06T08:35:25;-13.50;99.90
14798;DHT22;7490;63.708;20.368;2024-01-06T08:37:50;-13.40;99.90
14798;DHT22;7490;63.708;20.368;2024-01-06T08:40:16;-13.40;99.90
14798;DHT22;7490;63.708;20.368;2024-01-06T08:42:42;-13.40;99.90
14798;DHT22;7490;63.708;20.368;2024-01-06T08:45:09;-13.30;99.90
14798;DHT22;7490;63.708;20.368;2024-01-06T08:47:34;-13.20;99.90
14798;DHT22;7490;63.708;20.368;2024-01-06T08:50:00;-13.20;99.90
14798;DHT22;7490;63.708;20.368;2024-01-06T08:52:26;-13.20;99.90
14798;DHT22;7490;63.708;20.368;2024-01-06T08:54:51;-13.10;99.90
14798;DHT22;7490;63.708;20.368;2024-01-06T08:57:17;-13.10;99.90
14798;DHT22;7490;63.708;20.368;2024-01-06T08:59:43;-13.00;99.90
14798;DHT22;7490;63.708;20.368;2024-01-06T09:02:10;-13.00;99.90
14798;DHT22;7490;63.708;20.368;2024-01-06T09:04:36;-13.00;99.90
14798;DHT22;7490;63.708;20.368;2024-01-06T09:07:02;-13.00;99.90
14798;DHT22;7490;63.708;20.368;2024-01-06T09:09:27;-12.90;99.90
14798;DHT22;7490;63.708;20.368;2024-01-06T09:11:53;-12.90;99.90
14798;DHT22;7490;63.708;20.368;2024-01-06T09:14:19;-12.80;99.90
14798;DHT22;7490;63.708;20.368;2024-01-06T09:16:45;-12.70;99.90
14798;DHT22;7490;63.708;20.368;2024-01-06T09:19:11;-12.60;99.90
14798;DHT22;7490;63.708;20.368;2024-01-06T09:21:36;-12.50;99.90
14798;DHT22;7490;63.708;20.368;2024-01-06T09:24:02;-12.40;99.90
14798;DHT22;7490;63.708;20.368;2024-01-06T09:26:32;-12.30;99.90
14798;DHT22;7490;63.708;20.368;2024-01-06T09:29:00;-12.30;99.90
14798;DHT22;7490;63.708;20.368;2024-01-06T09:31:25;-12.20;99.90
14798;DHT22;7490;63.708;20.368;2024-01-06T09:33:51;-12.20;99.90
14798;DHT22;7490;63.708;20.368;2024-01-06T09:36:17;-12.20;99.90
14798;DHT22;7490;63.708;20.368;2024-01-06T09:38:43;-12.20;99.90
14798;DHT22;7490;63.708;20.368;2024-01-06T09:41:09;-12.20;99.90
14798;DHT22;7490;63.708;20.368;2024-01-06T09:43:35;-12.20;99.90
14798;DHT22;7490;63.708;20.368;2024-01-06T09:46:26;-12.30;99.90
14798;DHT22;7490;63.708;20.368;2024-01-06T09:48:53;-12.20;99.90
14798;DHT22;7490;63.708;20.368;2024-01-06T09:51:20;-12.10;99.90
14798;DHT22;7490;63.708;20.368;2024-01-06T09:53:58;-12.10;99.90
14798;DHT22;7490;63.708;20.368;2024-01-06T09:56:26;-12.10;99.90
14798;DHT22;7490;63.708;20.368;2024-01-06T09:58:52;-12.00;99.90
14798;DHT22;7490;63.708;20.368;2024-01-06T10:01:18;-11.90;99.90
14798;DHT22;7490;63.708;20.368;2024-01-06T10:03:44;-11.90;99.90
14798;DHT22;7490;63.708;20.368;2024-01-06T10:06:16;-11.80;99.90
14798;DHT22;7490;63.708;20.368;2024-01-06T10:08:52;-11.80;99.90
14798;DHT22;7490;63.708;20.368;2024-01-06T10:11:19;-11.70;99.90
14798;DHT22;7490;63.708;20.368;2024-01-06T10:13:49;-11.70;99.90
14798;DHT22;7490;63.708;20.368;2024-01-06T10:16:16;-11.60;99.90
14798;DHT22;7490;63.708;20.368;2024-01-06T10:18:41;-11.60;99.90
14798;DHT22;7490;63.708;20.368;2024-01-06T10:21:07;-11.60;99.90
14798;DHT22;7490;63.708;20.368;2024-01-06T10:23:33;-11.50;99.90
14798;DHT22;7490;63.708;20.368;2024-01-06T10:25:59;-11.50;99.90
14798;DHT22;7490;63.708;20.368;2024-01-06T10:28:25;-11.50;99.90
14798;DHT22;7490;63.708;20.368;2024-01-06T10:30:55;-11.40;99.90
14798;DHT22;7490;63.708;20.368;2024-01-06T10:33:22;-11.40;99.90
14798;DHT22;7490;63.708;20.368;2024-01-06T10:35:49;-11.40;99.90
14798;DHT22;7490;63.708;20.368;2024-01-06T10:38:15;-11.40;99.90
14798;DHT22;7490;63.708;20.368;2024-01-06T10:40:59;-11.50;99.90
14798;DHT22;7490;63.708;20.368;2024-01-06T10:43:26;-11.40;99.90
14798;DHT22;7490;63.708;20.368;2024-01-06T10:45:56;-11.40;99.90
14798;DHT22;7490;63.708;20.368;2024-01-06T10:48:25;-11.30;99.90
14798;DHT22;7490;63.708;20.368;2024-01-06T10:50:52;-11.20;99.90
14798;DHT22;7490;63.708;20.368;2024-01-06T10:53:20;-11.20;99.90
14798;DHT22;7490;63.708;20.368;2024-01-06T10:55:46;-11.10;99.90
14798;DHT22;7490;63.708;20.368;2024-01-06T10:58:14;-11.10;99.90
14798;DHT22;7490;63.708;20.368;2024-01-06T11:00:41;-11.10;99.90
14798;DHT22;7490;63.708;20.368;2024-01-06T11:03:09;-11.10;99.90
14798;DHT22;7490;63.708;20.368;2024-01-06T11:05:36;-11.10;99.90
14798;DHT22;7490;63.708;20.368;2024-01-06T11:08:04;-11.10;99.90
14798;DHT22;7490;63.708;20.368;2024-01-06T11:10:30;-11.10;99.90
14798;DHT22;7490;63.708;20.368;2024-01-06T11:13:09;-11.10;99.90
14798;DHT22;7490;63.708;20.368;2024-01-06T11:15:46;-11.10;99.90
14798;DHT22;7490;63.708;20.368;2024-01-06T11:18:33;-11.10;99.90
14798;DHT22;7490;63.708;20.368;2024-01-06T11:21:23;-11.00;99.90
14798;DHT22;7490;63.708;20.368;2024-01-06T11:24:18;-11.10;99.90
14798;DHT22;7490;63.708;20.368;2024-01-06T11:26:51;-11.10;99.90
14798;DHT22;7490;63.708;20.368;2024-01-06T11:29:20;-11.10;99.90
14798;DHT22;7490;63.708;20.368;2024-01-06T11:34:53;-11.00;99.90
14798;DHT22;7490;63.708;20.368;2024-01-06T11:37:34;-11.00;99.90
14798;DHT22;7490;63.708;20.368;2024-01-06T11:40:02;-11.00;99.90
14798;DHT22;7490;63.708;20.368;2024-01-06T11:42:33;-11.00;99.90
14798;DHT22;7490;63.708;20.368;2024-01-06T11:45:04;-11.00;99.90
14798;DHT22;7490;63.708;20.368;2024-01-06T11:47:36;-11.00;99.90
14798;DHT22;7490;63.708;20.368;2024-01-06T11:50:04;-11.00;99.90
14798;DHT22;7490;63.708;20.368;2024-01-06T11:52:34;-11.00;99.90
14798;DHT22;7490;63.708;20.368;2024-01-06T11:55:00;-10.90;99.90
14798;DHT22;7490;63.708;20.368;2024-01-06T11:57:29;-10.90;99.90
14798;DHT22;7490;63.708;20.368;2024-01-06T11:59:55;-10.90;99.90
14798;DHT22;7490;63.708;20.368;2024-01-06T12:02:21;-10.90;99.90
14798;DHT22;7490;63.708;20.368;2024-01-06T12:04:53;-10.90;99.90
14798;DHT22;7490;63.708;20.368;2024-01-06T12:07:20;-10.90;99.90
14798;DHT22;7490;63.708;20.368;2024-01-06T12:09:48;-10.90;99.90
14798;DHT22;7490;63.708;20.368;2024-01-06T12:12:17;-11.00;99.90
14798;DHT22;7490;63.708;20.368;2024-01-06T12:14:44;-11.00;99.90
14798;DHT22;7490;63.708;20.368;2024-01-06T12:17:11;-11.10;99.90
14798;DHT22;7490;63.708;20.368;2024-01-06T12:19:39;-11.10;99.90
14798;DHT22;7490;63.708;20.368;2024-01-06T12:22:07;-11.20;99.90
14798;DHT22;7490;63.708;20.368;2024-01-06T12:24:33;-11.20;99.90
14798;DHT22;7490;63.708;20.368;2024-01-06T12:26:59;-11.20;99.90
14798;DHT22;7490;63.708;20.368;2024-01-06T12:29:28;-11.20;99.90
14798;DHT22;7490;63.708;20.368;2024-01-06T12:31:59;-11.10;99.90
14798;DHT22;7490;63.708;20.368;2024-01-06T12:34:25;-11.10;99.90
14798;DHT22;7490;63.708;20.368;2024-01-06T12:36:55;-11.10;99.90
14798;DHT22;7490;63.708;20.368;2024-01-06T12:39:21;-11.10;99.90
14798;DHT22;7490;63.708;20.368;2024-01-06T12:41:46;-11.10;99.90
14798;DHT22;7490;63.708;20.368;2024-01-06T12:44:13;-11.10;99.90
14798;DHT22;7490;63.708;20.368;2024-01-06T12:46:38;-11.10;99.90
14798;DHT22;7490;63.708;20.368;2024-01-06T12:49:04;-11.10;99.90
14798;DHT22;7490;63.708;20.368;2024-01-06T12:51:30;-11.10;99.90
14798;DHT22;7490;63.708;20.368;2024-01-06T12:53:56;-11.00;99.90
14798;DHT22;7490;63.708;20.368;2024-01-06T12:56:21;-11.00;99.90
14798;DHT22;7490;63.708;20.368;2024-01-06T12:58:47;-11.00;99.90
14798;DHT22;7490;63.708;20.368;2024-01-06T13:01:13;-11.00;99.90
14798;DHT22;7490;63.708;20.368;2024-01-06T13:03:38;-11.00;99.90
14798;DHT22;7490;63.708;20.368;2024-01-06T13:06:04;-11.00;99.90
14798;DHT22;7490;63.708;20.368;2024-01-06T13:08:30;-11.00;99.90
14798;DHT22;7490;63.708;20.368;2024-01-06T13:10:56;-11.00;99.90
14798;DHT22;7490;63.708;20.368;2024-01-06T13:13:22;-11.00;99.90
14798;DHT22;7490;63.708;20.368;2024-01-06T13:15:47;-11.00;99.90
14798;DHT22;7490;63.708;20.368;2024-01-06T13:18:13;-11.00;99.90
14798;DHT22;7490;63.708;20.368;2024-01-06T13:20:39;-11.00;99.90
14798;DHT22;7490;63.708;20.368;2024-01-06T13:23:07;-11.10;99.90
14798;DHT22;7490;63.708;20.368;2024-01-06T13:25:34;-11.00;99.90
14798;DHT22;7490;63.708;20.368;2024-01-06T13:28:00;-11.10;99.90
14798;DHT22;7490;63.708;20.368;2024-01-06T13:30:25;-11.10;99.90
14798;DHT22;7490;63.708;20.368;2024-01-06T13:32:54;-11.10;99.90
14798;DHT22;7490;63.708;20.368;2024-01-06T13:35:20;-11.10;99.90
14798;DHT22;7490;63.708;20.368;2024-01-06T13:37:49;-11.00;99.90
14798;DHT22;7490;63.708;20.368;2024-01-06T13:40:17;-11.00;99.90
14798;DHT22;7490;63.708;20.368;2024-01-06T13:42:49;-11.00;99.90
14798;DHT22;7490;63.708;20.368;2024-01-06T13:45:16;-11.00;99.90
14798;DHT22;7490;63.708;20.368;2024-01-06T13:47:42;-11.00;99.90
14798;DHT22;7490;63.708;20.368;2024-01-06T13:50:13;-11.00;99.90
14798;DHT22;7490;63.708;20.368;2024-01-06T13:52:39;-11.00;99.90
14798;DHT22;7490;63.708;20.368;2024-01-06T13:55:05;-11.00;99.90
14798;DHT22;7490;63.708;20.368;2024-01-06T13:57:32;-11.00;99.90
14798;DHT22;7490;63.708;20.368;2024-01-06T13:59:57;-11.00;99.90
14798;DHT22;7490;63.708;20.368;2024-01-06T14:02:23;-11.00;99.90
14798;DHT22;7490;63.708;20.368;2024-01-06T14:04:50;-11.00;99.90
14798;DHT22;7490;63.708;20.368;2024-01-06T14:07:15;-11.00;99.90
14798;DHT22;7490;63.708;20.368;2024-01-06T14:09:44;-11.00;99.90
14798;DHT22;7490;63.708;20.368;2024-01-06T14:12:10;-11.00;99.90
14798;DHT22;7490;63.708;20.368;2024-01-06T14:14:36;-11.00;99.90
14798;DHT22;7490;63.708;20.368;2024-01-06T14:17:02;-11.10;99.90
14798;DHT22;7490;63.708;20.368;2024-01-06T14:19:28;-11.10;99.90
14798;DHT22;7490;63.708;20.368;2024-01-06T14:21:53;-11.10;99.90
14798;DHT22;7490;63.708;20.368;2024-01-06T14:24:19;-11.10;99.90
14798;DHT22;7490;63.708;20.368;2024-01-06T14:26:49;-11.10;99.90
14798;DHT22;7490;63.708;20.368;2024-01-06T14:29:15;-11.10;99.90
14798;DHT22;7490;63.708;20.368;2024-01-06T14:31:45;-11.20;99.90
14798;DHT22;7490;63.708;20.368;2024-01-06T14:34:10;-11.20;99.90
14798;DHT22;7490;63.708;20.368;2024-01-06T14:36:36;-11.10;99.90
14798;DHT22;7490;63.708;20.368;2024-01-06T14:39:02;-11.20;99.90
14798;DHT22;7490;63.708;20.368;2024-01-06T14:41:29;-11.20;99.90
14798;DHT22;7490;63.708;20.368;2024-01-06T14:43:55;-11.20;99.90
14798;DHT22;7490;63.708;20.368;2024-01-06T14:46:20;-11.30;99.90
14798;DHT22;7490;63.708;20.368;2024-01-06T14:48:46;-11.30;99.90
14798;DHT22;7490;63.708;20.368;2024-01-06T14:51:12;-11.30;99.90
14798;DHT22;7490;63.708;20.368;2024-01-06T14:53:37;-11.30;99.90
14798;DHT22;7490;63.708;20.368;2024-01-06T14:56:03;-11.30;99.90
14798;DHT22;7490;63.708;20.368;2024-01-06T14:58:30;-11.30;99.90
14798;DHT22;7490;63.708;20.368;2024-01-06T15:00:56;-11.30;99.90
14798;DHT22;7490;63.708;20.368;2024-01-06T15:03:21;-11.30;99.90
14798;DHT22;7490;63.708;20.368;2024-01-06T15:05:49;-11.30;99.90
14798;DHT22;7490;63.708;20.368;2024-01-06T15:08:14;-11.30;99.90
14798;DHT22;7490;63.708;20.368;2024-01-06T15:10:40;-11.20;99.90
14798;DHT22;7490;63.708;20.368;2024-01-06T15:13:06;-11.20;99.90
14798;DHT22;7490;63.708;20.368;2024-01-06T15:15:31;-11.20;99.90